createdAt,value
2018-08-13T00:04:01.020Z,2.90
2018-08-13T00:09:06.650Z,1.47
2018-08-13T00:14:10.284Z,2.03
2018-08-13T00:19:13.979Z,1.80
2018-08-13T00:24:18.171Z,3.33
2018-08-13T00:29:21.863Z,1.97
2018-08-13T00:34:25.910Z,3.60
2018-08-13T00:39:29.796Z,2.07
2018-08-13T00:44:33.441Z,1.70
2018-08-13T00:49:37.111Z,1.77
2018-08-13T00:54:40.995Z,1.83
2018-08-13T00:59:44.720Z,1.60
2018-08-13T01:04:48.414Z,2.60
2018-08-13T01:09:52.085Z,2.03
2018-08-13T01:14:55.767Z,2.37
2018-08-13T01:19:59.454Z,2.00
2018-08-13T01:25:03.929Z,1.87
2018-08-13T01:30:08.995Z,2.10
2018-08-13T01:35:12.998Z,1.87
2018-08-13T01:40:16.821Z,7.50
2018-08-13T01:45:20.506Z,2.20
2018-08-13T01:50:24.175Z,1.40
2018-08-13T01:55:27.856Z,2.97
2018-08-13T02:00:31.726Z,1.93
2018-08-13T02:05:35.545Z,2.07
2018-08-13T02:10:39.489Z,2.40
2018-08-13T02:15:43.184Z,1.33
2018-08-13T02:20:46.852Z,1.90
2018-08-13T02:25:50.558Z,3.67
2018-08-13T02:30:54.192Z,2.03
2018-08-13T02:35:57.887Z,3.33
2018-08-13T02:41:01.628Z,2.20
2018-08-13T02:46:05.727Z,3.27
2018-08-13T02:51:09.452Z,2.60
2018-08-13T02:56:13.160Z,2.13
2018-08-13T03:01:16.855Z,1.40
2018-08-13T03:06:21.093Z,2.43
2018-08-13T03:11:25.219Z,2.27
2018-08-13T03:16:28.989Z,1.30
2018-08-13T03:21:33.196Z,1.87
2018-08-13T03:26:37.339Z,2.17
2018-08-13T03:31:41.228Z,1.57
2018-08-13T03:36:45.075Z,2.27
2018-08-13T03:41:48.739Z,3.73
2018-08-13T03:46:52.387Z,2.13
2018-08-13T03:51:56.057Z,2.20
2018-08-13T03:56:59.716Z,1.43
2018-08-13T04:02:03.387Z,2.40
2018-08-13T04:07:07.105Z,2.03
2018-08-13T04:12:10.824Z,2.77
2018-08-13T04:17:14.450Z,1.93
2018-08-13T04:22:18.084Z,1.77
2018-08-13T04:27:21.719Z,1.80
2018-08-13T04:32:25.353Z,6.03
2018-08-13T04:37:29.019Z,3.07
2018-08-13T04:42:32.685Z,1.77
2018-08-13T04:47:36.371Z,3.23
2018-08-13T04:52:40.073Z,4.30
2018-08-13T04:57:43.843Z,3.90
2018-08-13T05:02:47.522Z,2.47
2018-08-13T05:07:51.262Z,2.70
2018-08-13T05:12:55.200Z,2.60
2018-08-13T05:17:58.922Z,4.80
2018-08-13T05:23:02.623Z,2.10
2018-08-13T05:28:06.389Z,3.60
2018-08-13T05:33:10.096Z,2.00
2018-08-13T05:38:13.876Z,2.20
2018-08-13T05:43:17.575Z,2.03
2018-08-13T05:48:21.367Z,3.47
2018-08-13T05:53:25.175Z,3.47
2018-08-13T05:58:28.839Z,2.47
2018-08-13T06:03:32.864Z,3.30
2018-08-13T06:08:36.514Z,2.53
2018-08-13T06:13:40.118Z,3.37
2018-08-13T06:18:43.782Z,4.33
2018-08-13T06:23:47.902Z,3.87
2018-08-13T06:28:51.687Z,2.70
2018-08-13T06:33:55.360Z,2.17
2018-08-13T06:38:59.153Z,5.87
2018-08-13T06:44:02.874Z,1.60
2018-08-13T06:49:07.220Z,1.57
2018-08-13T06:54:11.176Z,2.37
2018-08-13T06:59:14.814Z,3.60
2018-08-13T07:04:19.137Z,2.37
2018-08-13T07:09:22.893Z,1.90
2018-08-13T07:14:26.618Z,5.23
2018-08-13T07:19:30.298Z,2.70
2018-08-13T07:24:34.038Z,4.23
2018-08-13T07:29:37.753Z,5.83
2018-08-13T07:34:41.391Z,5.90
2018-08-13T07:39:45.022Z,3.97
2018-08-13T07:44:48.755Z,5.23
2018-08-13T07:49:52.456Z,5.03
2018-08-13T07:54:56.271Z,4.60
2018-08-13T08:00:00.173Z,3.80
2018-08-13T08:05:03.890Z,3.47
2018-08-13T08:10:10.950Z,3.40
2018-08-13T08:15:16.323Z,6.20
2018-08-13T08:20:20.095Z,8.27
2018-08-13T08:25:23.891Z,8.97
2018-08-13T08:30:27.647Z,6.07
2018-08-13T08:35:31.980Z,5.70
2018-08-13T08:40:35.866Z,5.57
2018-08-13T08:45:39.926Z,3.87
2018-08-13T08:50:43.573Z,3.13
2018-08-13T08:55:47.938Z,4.07
2018-08-13T09:00:51.798Z,3.70
2018-08-13T09:05:55.522Z,3.00
2018-08-13T09:10:59.147Z,3.00
2018-08-13T09:16:02.883Z,4.87
2018-08-13T09:21:17.913Z,2.40
2018-08-13T09:26:33.003Z,4.83
2018-08-13T09:32:17.819Z,2.77
2018-08-13T09:37:21.455Z,3.07
2018-08-13T09:42:25.359Z,3.10
2018-08-13T09:47:29.179Z,2.77
2018-08-13T09:52:32.839Z,1.90
2018-08-13T09:57:36.536Z,3.60
2018-08-13T10:02:40.193Z,2.20
2018-08-13T10:07:44.405Z,2.40
2018-08-13T10:12:48.327Z,2.30
2018-08-13T10:17:52.142Z,2.60
2018-08-13T10:22:55.927Z,4.17
2018-08-13T10:27:59.585Z,2.27
2018-08-13T10:33:03.362Z,2.80
2018-08-13T10:38:06.982Z,2.67
2018-08-13T10:43:10.666Z,3.77
2018-08-13T10:48:14.477Z,2.00
2018-08-13T10:53:18.142Z,2.53
2018-08-13T10:58:22.574Z,2.00
2018-08-13T11:03:26.268Z,2.43
2018-08-13T11:08:30.133Z,2.13
2018-08-13T11:13:33.904Z,2.43
2018-08-13T11:18:37.472Z,1.67
2018-08-13T11:23:41.307Z,2.50
2018-08-13T11:28:45.671Z,2.07
2018-08-13T11:33:49.359Z,2.00
2018-08-13T11:38:53.003Z,2.63
2018-08-13T11:43:56.638Z,1.77
2018-08-13T11:49:00.563Z,2.07
2018-08-13T11:54:05.178Z,2.00
2018-08-13T11:59:08.880Z,3.10
2018-08-13T12:04:12.575Z,1.73
2018-08-13T12:09:16.226Z,1.67
2018-08-13T12:14:19.861Z,2.10
2018-08-13T12:19:23.595Z,1.43
2018-08-13T12:24:27.297Z,1.33
2018-08-13T12:29:30.947Z,1.27
2018-08-13T12:34:34.717Z,1.33
2018-08-13T12:39:39.366Z,1.17
2018-08-13T12:44:43.038Z,1.67
2018-08-13T12:49:46.733Z,1.00
2018-08-13T12:54:50.504Z,1.30
2018-08-13T12:59:54.155Z,1.47
2018-08-13T13:04:57.820Z,2.07
2018-08-13T13:10:01.519Z,2.47
2018-08-13T13:15:07.386Z,2.83
2018-08-13T13:20:19.798Z,5.10
2018-08-13T13:25:23.559Z,2.20
2018-08-13T13:30:27.760Z,3.57
2018-08-13T13:35:31.454Z,2.00
2018-08-13T13:40:35.184Z,1.70
2018-08-13T13:45:38.864Z,2.20
2018-08-13T13:50:42.556Z,1.87
2018-08-13T13:55:46.304Z,2.60
2018-08-13T14:00:50.021Z,2.10
2018-08-13T14:05:53.703Z,3.03
2018-08-13T14:10:58.044Z,2.60
2018-08-13T14:16:02.682Z,2.43
2018-08-13T14:21:06.430Z,2.60
2018-08-13T14:26:10.165Z,2.93
2018-08-13T14:31:13.864Z,3.23
2018-08-13T14:36:17.525Z,2.83
2018-08-13T14:41:21.176Z,2.67
2018-08-13T14:46:24.848Z,3.07
2018-08-13T14:51:28.522Z,2.97
2018-08-13T14:56:32.310Z,3.90
2018-08-13T15:01:36.010Z,4.20
2018-08-13T15:06:39.758Z,4.87
2018-08-13T15:11:43.454Z,3.83
2018-08-13T15:16:47.142Z,3.63
2018-08-13T15:21:50.891Z,4.67
2018-08-13T15:26:54.709Z,5.17
2018-08-13T15:31:58.447Z,4.97
2018-08-13T15:37:02.653Z,4.97
2018-08-13T15:42:06.321Z,6.47
2018-08-13T15:47:10.019Z,6.53
2018-08-13T15:52:13.694Z,3.03
2018-08-13T15:57:17.574Z,2.40
2018-08-13T16:02:21.249Z,2.47
2018-08-13T16:07:24.905Z,1.70
2018-08-13T16:12:28.553Z,1.97
2018-08-13T16:17:32.214Z,2.80
2018-08-13T16:22:35.953Z,2.47
2018-08-13T16:27:39.935Z,3.50
2018-08-13T16:32:43.839Z,3.90
2018-08-13T16:37:47.968Z,5.30
2018-08-13T16:42:52.206Z,4.43
2018-08-13T16:47:55.841Z,5.23
2018-08-13T16:53:00.093Z,7.97
2018-08-13T16:58:03.995Z,3.43
2018-08-13T17:03:07.676Z,3.90
2018-08-13T17:08:11.381Z,4.33
2018-08-13T17:13:15.143Z,3.67
2018-08-13T17:18:18.802Z,1.83
2018-08-13T17:23:22.495Z,2.00
2018-08-13T17:28:26.176Z,3.40
2018-08-13T17:33:30.471Z,2.70
2018-08-13T17:38:34.166Z,4.47
2018-08-13T17:45:03.127Z,2.20
2018-08-13T17:50:08.465Z,3.43
2018-08-13T17:55:12.984Z,4.90
2018-08-13T18:00:27.151Z,3.83
2018-08-13T18:05:30.851Z,4.80
2018-08-13T18:10:35.081Z,5.77
2018-08-13T18:15:38.808Z,6.83
2018-08-13T18:20:42.454Z,5.10
2018-08-13T18:25:46.134Z,7.50
2018-08-13T18:30:49.784Z,9.60
2018-08-13T18:35:53.504Z,9.50
2018-08-13T18:40:57.205Z,10.53
2018-08-13T18:46:00.898Z,9.93
2018-08-13T18:51:04.592Z,10.37
2018-08-13T18:56:08.874Z,12.60
2018-08-13T19:01:12.597Z,13.10
2018-08-13T19:06:16.252Z,13.93
2018-08-13T19:11:19.925Z,13.53
2018-08-13T19:16:23.575Z,14.30
2018-08-13T19:21:27.469Z,15.40
2018-08-13T19:26:31.117Z,14.60
2018-08-13T19:31:34.755Z,15.20
2018-08-13T19:36:38.399Z,16.50
2018-08-13T19:41:43.119Z,15.53
2018-08-13T19:46:46.810Z,14.77
2018-08-13T19:51:50.522Z,13.73
2018-08-13T19:56:54.270Z,12.47
2018-08-13T20:01:57.983Z,10.93
2018-08-13T20:07:01.764Z,8.80
2018-08-13T20:12:05.450Z,8.97
2018-08-13T20:17:09.152Z,7.70
2018-08-13T20:22:15.041Z,6.57
2018-08-13T20:27:18.671Z,6.17
2018-08-13T20:32:22.354Z,5.70
2018-08-13T20:37:26.037Z,6.07
2018-08-13T20:42:29.745Z,5.90
2018-08-13T20:47:33.988Z,8.67
2018-08-13T20:52:37.674Z,5.73
2018-08-13T20:57:41.575Z,5.63
2018-08-13T21:02:46.592Z,5.30
2018-08-13T21:07:50.916Z,4.27
2018-08-13T21:12:54.590Z,4.87
2018-08-13T21:17:58.305Z,4.93
2018-08-13T21:23:01.995Z,6.40
2018-08-13T21:28:05.659Z,5.00
2018-08-13T21:33:09.398Z,4.10
2018-08-13T21:38:13.080Z,4.67
2018-08-13T21:43:16.712Z,5.57
2018-08-13T21:48:20.392Z,5.33
2018-08-13T21:53:24.029Z,4.97
2018-08-13T21:58:27.635Z,5.47
2018-08-13T22:03:31.314Z,5.63
2018-08-13T22:08:35.010Z,5.67
2018-08-13T22:13:38.717Z,6.23
2018-08-13T22:18:42.455Z,5.77
2018-08-13T22:23:57.399Z,6.13
2018-08-13T22:29:01.889Z,7.83
2018-08-13T22:34:05.650Z,5.83
2018-08-13T22:39:09.548Z,6.50
2018-08-13T22:44:13.234Z,6.77
2018-08-13T22:49:16.968Z,6.43
2018-08-13T22:54:20.705Z,6.37
2018-08-13T22:59:24.420Z,6.10
2018-08-13T23:04:28.095Z,5.63
2018-08-13T23:09:31.780Z,7.27
2018-08-13T23:14:35.498Z,6.57
2018-08-13T23:19:39.163Z,6.43
2018-08-13T23:24:42.880Z,6.57
2018-08-13T23:29:46.515Z,6.67
2018-08-13T23:34:50.173Z,6.70
2018-08-13T23:39:53.886Z,8.00
2018-08-13T23:44:57.664Z,7.50
2018-08-13T23:50:01.465Z,9.47
2018-08-13T23:55:06.419Z,9.00
